createdAt,value
2019-03-17T00:00:00.681Z,78.2
2019-03-17T00:00:30.827Z,78.5
2019-03-17T00:01:01.066Z,78.5
2019-03-17T00:01:31.308Z,78.6
2019-03-17T00:02:01.909Z,78.6
2019-03-17T00:03:26.900Z,79.1
2019-03-17T00:04:32.037Z,78.9
2019-03-17T00:05:24.764Z,79
2019-03-17T00:06:24.152Z,78.9
2019-03-17T00:07:22.872Z,79
2019-03-17T00:08:22.114Z,79.1
2019-03-17T00:09:21.442Z,79
2019-03-17T00:10:20.304Z,78.9
2019-03-17T00:10:52.964Z,78.9
2019-03-17T00:11:21.113Z,79
2019-03-17T00:11:51.344Z,79
2019-03-17T00:12:21.569Z,79.2
2019-03-17T00:12:51.793Z,79.2
2019-03-17T00:13:22.330Z,79.2
2019-03-17T00:14:16.508Z,79.3
2019-03-17T00:15:15.955Z,79.3
2019-03-17T00:16:15.178Z,79.3
2019-03-17T00:17:14.084Z,79.4
2019-03-17T00:18:13.211Z,79.5
2019-03-17T00:19:12.429Z,79.5
2019-03-17T00:20:11.145Z,79.5
2019-03-17T00:21:10.369Z,79.7
2019-03-17T00:21:40.591Z,79.7
2019-03-17T00:22:10.827Z,79.9
2019-03-17T00:22:41.055Z,79.9
2019-03-17T00:23:11.673Z,80
2019-03-17T00:24:07.462Z,80
2019-03-17T00:25:10.401Z,80.1
2019-03-17T00:26:05.847Z,80
2019-03-17T00:27:05.170Z,80.3
2019-03-17T00:28:03.879Z,80.2
2019-03-17T00:29:03.097Z,80.2
2019-03-17T00:30:02.314Z,80.2
2019-03-17T00:31:01.155Z,80.2
2019-03-17T00:32:00.487Z,80.3
2019-03-17T00:32:59.408Z,80.2
2019-03-17T00:33:58.894Z,80.1
2019-03-17T00:34:57.707Z,80.1
2019-03-17T00:35:57.014Z,80.3
2019-03-17T00:36:55.907Z,80.3
2019-03-17T00:37:26.476Z,80.3
2019-03-17T00:37:57.102Z,80.3
2019-03-17T00:38:53.991Z,80.6
2019-03-17T00:39:53.218Z,80.6
2019-03-17T00:40:52.537Z,80.5
2019-03-17T00:41:51.155Z,80.6
2019-03-17T00:42:50.575Z,80.9
2019-03-17T00:43:49.399Z,81.1
2019-03-17T00:44:48.812Z,81.2
2019-03-17T00:45:47.733Z,81.1
2019-03-17T00:46:46.849Z,81.3
2019-03-17T00:47:17.286Z,81.3
2019-03-17T00:47:48.032Z,81.5
2019-03-17T00:48:18.264Z,81.5
2019-03-17T00:48:48.499Z,81.5
2019-03-17T00:49:44.301Z,81.6
2019-03-17T00:50:43.143Z,81.5
2019-03-17T00:51:42.069Z,81.7
2019-03-17T00:52:41.301Z,81.6
2019-03-17T00:53:40.638Z,82.1
2019-03-17T00:54:39.465Z,82.3
2019-03-17T00:55:38.677Z,82.4
2019-03-17T00:56:37.478Z,82.6
2019-03-17T00:57:07.695Z,82.6
2019-03-17T00:57:38.248Z,82.5
2019-03-17T00:58:08.799Z,82.5
2019-03-17T00:59:35.095Z,82.8
2019-03-17T01:00:33.897Z,82.8
2019-03-17T01:01:33.316Z,82.8
2019-03-17T01:02:32.125Z,82.7
2019-03-17T01:03:31.548Z,83.1
2019-03-17T01:04:30.451Z,83
2019-03-17T01:05:31.673Z,83
2019-03-17T01:06:28.469Z,82.9
2019-03-17T01:06:59.107Z,82.9
2019-03-17T01:07:29.733Z,83
2019-03-17T01:08:00.263Z,83
2019-03-17T01:08:30.902Z,83
2019-03-17T01:09:01.529Z,83
2019-03-17T01:10:25.096Z,83.2
2019-03-17T01:11:23.811Z,83.1
2019-03-17T01:12:23.129Z,83.2
2019-03-17T01:13:22.399Z,83.1
2019-03-17T01:14:21.214Z,83.2
2019-03-17T01:15:20.435Z,83.3
2019-03-17T01:16:19.245Z,83.3
2019-03-17T01:16:49.691Z,83.3
2019-03-17T01:17:20.225Z,83.3
2019-03-17T01:17:50.357Z,83.3
2019-03-17T01:18:20.897Z,83.2
2019-03-17T01:18:51.429Z,83.2
2019-03-17T01:19:21.867Z,83.4
2019-03-17T01:19:52.509Z,83.4
2019-03-17T01:21:14.465Z,83.3
2019-03-17T01:22:13.788Z,83.4
2019-03-17T01:23:13.008Z,83.3
2019-03-17T01:24:11.734Z,83.4
2019-03-17T01:25:10.961Z,83.5
2019-03-17T01:26:10.280Z,83.8
2019-03-17T01:26:40.804Z,83.8
2019-03-17T01:27:11.540Z,83.8
2019-03-17T01:27:41.661Z,83.8
2019-03-17T01:28:12.203Z,83.8
2019-03-17T01:28:42.849Z,83.8
2019-03-17T01:29:13.290Z,83.8
2019-03-17T01:29:43.793Z,83.8
2019-03-17T01:30:14.049Z,83.8
2019-03-17T01:30:44.687Z,83.8
2019-03-17T01:32:04.735Z,84.2
2019-03-17T01:33:03.455Z,84.3
2019-03-17T01:34:02.775Z,84.8
2019-03-17T01:35:10.287Z,84.9
2019-03-17T01:36:01.130Z,85.1
2019-03-17T01:36:31.760Z,85.1
2019-03-17T01:37:02.385Z,85.2
2019-03-17T01:37:32.521Z,85.2
2019-03-17T01:38:03.243Z,85.2
2019-03-17T01:38:33.870Z,85.2
2019-03-17T01:39:04.400Z,85.1
2019-03-17T01:39:34.929Z,85.1
2019-03-17T01:40:05.559Z,85.2
2019-03-17T01:40:35.843Z,85.2
2019-03-17T01:41:06.369Z,85.3
2019-03-17T01:41:36.890Z,85.3
2019-03-17T01:42:54.416Z,85.3
2019-03-17T01:43:53.634Z,85.7
2019-03-17T01:44:52.438Z,85.7
2019-03-17T01:46:50.727Z,85.8
2019-03-17T01:47:21.413Z,85.8
2019-03-17T01:47:51.949Z,85.9
2019-03-17T01:48:22.576Z,85.9
2019-03-17T01:48:52.806Z,85.9
2019-03-17T01:49:23.462Z,85.9
2019-03-17T01:49:53.688Z,85.9
2019-03-17T01:50:23.807Z,85.9
2019-03-17T01:50:54.443Z,85.9
2019-03-17T01:51:24.660Z,85.9
2019-03-17T01:52:45.213Z,86.2
2019-03-17T01:53:44.031Z,86.3
2019-03-17T01:54:43.146Z,86.2
2019-03-17T01:55:42.135Z,86.2
2019-03-17T01:56:41.358Z,86.1
2019-03-17T01:57:40.596Z,86
2019-03-17T01:58:10.994Z,86
2019-03-17T01:58:41.712Z,86.1
2019-03-17T01:59:12.340Z,86.1
2019-03-17T01:59:42.884Z,86
2019-03-17T02:00:13.636Z,86
2019-03-17T02:00:44.214Z,86
2019-03-17T02:01:14.443Z,86
2019-03-17T02:02:36.000Z,85.8
2019-03-17T02:03:34.905Z,85.8
2019-03-17T02:04:34.212Z,85.7
2019-03-17T02:05:32.925Z,85.7
2019-03-17T02:06:32.353Z,85.7
2019-03-17T02:07:31.257Z,85.6
2019-03-17T02:08:30.232Z,85.6
2019-03-17T02:09:00.754Z,85.6
2019-03-17T02:09:31.503Z,85.7
2019-03-17T02:10:02.135Z,85.7
2019-03-17T02:10:32.560Z,85.5
2019-03-17T02:11:03.201Z,85.5
2019-03-17T02:12:26.747Z,85.5
2019-03-17T02:13:25.453Z,85.6
2019-03-17T02:14:24.768Z,85.4
2019-03-17T02:15:23.483Z,85.4
2019-03-17T02:16:22.793Z,85.4
2019-03-17T02:17:21.710Z,85.4
2019-03-17T02:18:21.023Z,85.6
2019-03-17T02:19:20.143Z,85.6
2019-03-17T02:19:50.776Z,85.6
2019-03-17T02:20:21.302Z,85.7
2019-03-17T02:20:51.741Z,85.7
2019-03-17T02:22:17.223Z,85.4
2019-03-17T02:23:16.122Z,85.3
2019-03-17T02:25:14.425Z,85
2019-03-17T02:26:13.683Z,84.8
2019-03-17T02:27:12.505Z,84.7
2019-03-17T02:28:11.949Z,84.3
2019-03-17T02:29:10.687Z,84.1
2019-03-17T02:30:09.561Z,83.8
2019-03-17T02:30:39.938Z,83.8
2019-03-17T02:31:10.140Z,83.8
2019-03-17T02:32:08.010Z,83.6
2019-03-17T02:33:07.047Z,83.6
2019-03-17T02:34:05.897Z,83.5
2019-03-17T02:35:05.249Z,83.6
2019-03-17T02:36:04.066Z,83.4
2019-03-17T02:37:03.544Z,83.1
2019-03-17T02:38:02.353Z,83.2
2019-03-17T02:39:01.723Z,83.1
2019-03-17T02:40:00.822Z,82.8
2019-03-17T02:40:31.043Z,82.8
2019-03-17T02:41:01.694Z,82.6
2019-03-17T02:41:31.950Z,82.6
2019-03-17T02:42:02.600Z,82.6
2019-03-17T02:42:57.730Z,82.5
2019-03-17T02:43:57.090Z,82.5
2019-03-17T02:44:56.050Z,82.4
2019-03-17T02:45:54.874Z,82.4
2019-03-17T02:46:54.317Z,82.5
2019-03-17T02:47:53.235Z,82.6
2019-03-17T02:48:52.122Z,82.8
2019-03-17T02:49:51.583Z,82.8
2019-03-17T02:50:50.303Z,82.9
2019-03-17T02:51:49.550Z,82.9
2019-03-17T02:52:48.515Z,82.9
2019-03-17T02:53:47.500Z,82.7
2019-03-17T02:54:46.816Z,82.8
2019-03-17T02:55:45.634Z,82.8
2019-03-17T02:56:15.777Z,82.8
2019-03-17T02:56:46.320Z,82.8
2019-03-17T02:57:16.948Z,82.8
2019-03-17T02:57:47.504Z,82.9
2019-03-17T02:58:43.314Z,82.9
2019-03-17T02:59:42.083Z,83
2019-03-17T03:00:41.019Z,83
2019-03-17T03:01:40.359Z,83.2
2019-03-17T03:02:39.214Z,83.2
2019-03-17T03:03:38.651Z,83.4
2019-03-17T03:04:37.494Z,83.4
2019-03-17T03:05:36.773Z,83.6
2019-03-17T03:06:07.283Z,83.6
2019-03-17T03:06:37.528Z,83.6
2019-03-17T03:07:07.762Z,83.6
2019-03-17T03:08:33.667Z,83.7
2019-03-17T03:09:33.122Z,83.8
2019-03-17T03:10:32.707Z,83.9
2019-03-17T03:11:31.050Z,83.9
2019-03-17T03:12:30.274Z,84
2019-03-17T03:13:29.107Z,84
2019-03-17T03:14:28.438Z,84.1
2019-03-17T03:15:27.266Z,84.2
2019-03-17T03:15:57.834Z,84.2
2019-03-17T03:16:28.208Z,84.2
2019-03-17T03:16:58.979Z,84.2
2019-03-17T03:17:29.577Z,84.1
2019-03-17T03:18:00.215Z,84.1
2019-03-17T03:19:23.829Z,84.3
2019-03-17T03:20:22.547Z,84.5
2019-03-17T03:21:21.790Z,84.7
2019-03-17T03:22:21.209Z,84.6
2019-03-17T03:23:20.131Z,84.7
2019-03-17T03:24:18.965Z,84.8
2019-03-17T03:25:18.298Z,84.8
2019-03-17T03:25:48.867Z,84.8
2019-03-17T03:26:19.498Z,84.9
2019-03-17T03:26:49.758Z,84.9
2019-03-17T03:27:19.997Z,84.9
2019-03-17T03:27:50.697Z,84.9
2019-03-17T03:28:20.856Z,84.9
2019-03-17T03:28:51.599Z,84.9
2019-03-17T03:30:13.864Z,84.9
2019-03-17T03:31:12.933Z,84.9
2019-03-17T03:32:11.871Z,84.9
2019-03-17T03:33:10.649Z,85
2019-03-17T03:34:10.041Z,84.9
2019-03-17T03:35:08.895Z,85
2019-03-17T03:35:39.353Z,85
2019-03-17T03:36:12.223Z,85
2019-03-17T03:36:40.527Z,85
2019-03-17T03:37:11.204Z,85.2
2019-03-17T03:37:41.463Z,85.2
2019-03-17T03:38:11.681Z,85.1
2019-03-17T03:38:41.901Z,85.1
2019-03-17T03:39:12.707Z,85.2
2019-03-17T03:39:43.001Z,85.2
2019-03-17T03:41:03.390Z,85.4
2019-03-17T03:42:02.684Z,85.5
2019-03-17T03:43:01.543Z,85.5
2019-03-17T03:44:00.477Z,85.5
2019-03-17T03:44:59.931Z,85.6
2019-03-17T03:45:30.415Z,85.6
2019-03-17T03:46:00.673Z,85.6
2019-03-17T03:46:31.242Z,85.6
2019-03-17T03:47:01.547Z,85.6
2019-03-17T03:47:31.800Z,85.6
2019-03-17T03:48:02.109Z,85.6
2019-03-17T03:48:32.775Z,85.6
2019-03-17T03:49:03.328Z,85.7
2019-03-17T03:49:33.991Z,85.7
2019-03-17T03:50:54.059Z,85.7
2019-03-17T03:51:53.438Z,85.7
2019-03-17T03:52:52.278Z,85.7
2019-03-17T03:53:51.215Z,85.7
2019-03-17T03:54:50.652Z,85.7
2019-03-17T03:55:49.495Z,85.8
2019-03-17T03:56:19.753Z,85.8
2019-03-17T03:56:50.334Z,85.8
2019-03-17T03:57:20.578Z,85.8
2019-03-17T03:57:51.241Z,85.8
2019-03-17T03:58:21.701Z,85.8
2019-03-17T03:58:52.282Z,85.7
2019-03-17T03:59:22.932Z,85.7
2019-03-17T04:00:44.985Z,85.7
2019-03-17T04:01:44.225Z,85.7
2019-03-17T04:02:43.090Z,85.7
2019-03-17T04:03:42.034Z,85.6
2019-03-17T04:04:41.310Z,85.7
2019-03-17T04:05:40.281Z,85.7
2019-03-17T04:06:39.442Z,85.7
2019-03-17T04:07:09.805Z,85.7
2019-03-17T04:07:40.051Z,85.6
2019-03-17T04:08:10.751Z,85.6
2019-03-17T04:08:41.043Z,85.6
2019-03-17T04:09:11.697Z,85.6
2019-03-17T04:10:35.791Z,85.5
2019-03-17T04:11:34.754Z,85.5
2019-03-17T04:12:34.086Z,85.5
2019-03-17T04:13:32.835Z,85.5
2019-03-17T04:14:32.219Z,85.5
2019-03-17T04:15:31.188Z,85.5
2019-03-17T04:16:30.330Z,85.5
2019-03-17T04:17:01.002Z,85.5
2019-03-17T04:17:31.253Z,85.7
2019-03-17T04:18:01.512Z,85.7
2019-03-17T04:18:31.759Z,85.7
2019-03-17T04:19:02.337Z,85.7
2019-03-17T04:19:33.015Z,85.6
2019-03-17T04:20:03.259Z,85.6
2019-03-17T04:21:25.365Z,85.6
2019-03-17T04:22:24.819Z,85.6
2019-03-17T04:23:23.757Z,85.7
2019-03-17T04:24:22.609Z,85.6
2019-03-17T04:25:21.759Z,85.6
2019-03-17T04:26:21.110Z,85.7
2019-03-17T04:27:20.029Z,85.7
2019-03-17T04:27:50.703Z,85.7
2019-03-17T04:28:21.250Z,85.6
2019-03-17T04:28:51.823Z,85.6
2019-03-17T04:29:22.409Z,85.6
2019-03-17T04:29:53.057Z,85.6
2019-03-17T04:31:16.122Z,85.7
2019-03-17T04:32:15.459Z,85.8
2019-03-17T04:33:14.297Z,85.8
2019-03-17T04:34:13.533Z,85.9
2019-03-17T04:35:12.468Z,85.9
2019-03-17T04:36:11.705Z,85.9
2019-03-17T04:37:10.539Z,85.9
2019-03-17T04:38:09.970Z,86
2019-03-17T04:38:43.574Z,86
2019-03-17T04:39:10.621Z,86
2019-03-17T04:39:41.283Z,86
2019-03-17T04:40:12.034Z,86.1
2019-03-17T04:40:42.180Z,86.1
2019-03-17T04:41:12.413Z,86.2
2019-03-17T04:42:06.199Z,86.2
2019-03-17T04:43:04.986Z,86.3
2019-03-17T04:44:04.403Z,86.3
2019-03-17T04:45:03.395Z,86.3
2019-03-17T04:46:02.246Z,86.4
2019-03-17T04:47:01.184Z,86.4
2019-03-17T04:48:00.411Z,86.4
2019-03-17T04:48:59.898Z,86.4
2019-03-17T04:49:30.340Z,86.4
2019-03-17T04:50:00.885Z,86.5
2019-03-17T04:50:57.707Z,86.6
2019-03-17T04:51:56.631Z,86.7
2019-03-17T04:52:55.791Z,86.7
2019-03-17T04:53:55.017Z,86.7
2019-03-17T04:54:25.252Z,86.7
2019-03-17T04:54:55.809Z,86.5
2019-03-17T04:55:53.137Z,86.5
2019-03-17T04:56:51.977Z,86.5
2019-03-17T04:57:51.303Z,86.5
2019-03-17T04:58:49.927Z,86.4
2019-03-17T04:59:49.373Z,86.3
2019-03-17T05:00:48.570Z,86.3
2019-03-17T05:01:47.291Z,86.3
2019-03-17T05:02:46.618Z,86.2
2019-03-17T05:03:45.539Z,86.1
2019-03-17T05:04:16.190Z,86.1
2019-03-17T05:04:46.466Z,85.9
2019-03-17T05:05:17.099Z,85.9
2019-03-17T05:05:47.321Z,85.7
2019-03-17T05:06:53.213Z,85.6
2019-03-17T05:07:12.744Z,85.6
2019-03-17T05:07:43.290Z,85.5
2019-03-17T05:08:41.151Z,85.4
2019-03-17T05:09:39.979Z,85.3
2019-03-17T05:10:39.218Z,85.1
2019-03-17T05:11:37.969Z,84.9
2019-03-17T05:12:37.024Z,84.8
2019-03-17T05:13:36.464Z,84.6
2019-03-17T05:14:35.320Z,84.6
2019-03-17T05:15:05.548Z,84.6
2019-03-17T05:16:36.076Z,84.3
2019-03-17T05:17:32.794Z,84.2
2019-03-17T05:18:31.525Z,84.3
2019-03-17T05:19:30.711Z,84.2
2019-03-17T05:20:29.972Z,83.9
2019-03-17T05:21:28.891Z,83.8
2019-03-17T05:22:27.927Z,83.7
2019-03-17T05:23:27.157Z,83.7
2019-03-17T05:24:25.884Z,83.6
2019-03-17T05:24:56.336Z,83.6
2019-03-17T05:25:26.875Z,83.6
2019-03-17T05:25:57.111Z,83.6
2019-03-17T05:27:23.129Z,83.5
2019-03-17T05:28:23.570Z,83.4
2019-03-17T05:29:21.386Z,83.3
2019-03-17T05:30:20.720Z,83.3
2019-03-17T05:31:19.439Z,83.3
2019-03-17T05:32:18.758Z,83.1
2019-03-17T05:33:17.503Z,83.1
2019-03-17T05:34:16.737Z,83.1
2019-03-17T05:34:47.291Z,83.1
2019-03-17T05:35:17.442Z,83.1
2019-03-17T05:35:48.122Z,83.1
2019-03-17T05:36:18.356Z,83.2
2019-03-17T05:36:48.502Z,83.2
2019-03-17T05:38:13.021Z,83.2
2019-03-17T05:39:12.350Z,83.2
2019-03-17T05:40:11.277Z,83.1
2019-03-17T05:41:10.516Z,83.1
2019-03-17T05:42:09.339Z,83.1
2019-03-17T05:43:08.178Z,82.9
2019-03-17T05:45:06.798Z,83
2019-03-17T05:45:37.506Z,83
2019-03-17T05:46:07.756Z,83
2019-03-17T05:46:38.398Z,83
2019-03-17T05:47:08.538Z,83
2019-03-17T05:47:39.084Z,83
2019-03-17T05:49:02.892Z,82.9
2019-03-17T05:50:01.845Z,82.9
2019-03-17T05:51:00.765Z,82.9
2019-03-17T05:51:59.987Z,82.8
2019-03-17T05:52:59.238Z,82.7
2019-03-17T05:53:57.974Z,82.7
2019-03-17T05:54:28.208Z,82.7
2019-03-17T05:54:58.848Z,82.5
2019-03-17T05:55:29.492Z,82.5
2019-03-17T05:56:00.038Z,82.3
2019-03-17T05:56:30.686Z,82.3
2019-03-17T05:57:01.125Z,82.2
2019-03-17T05:57:31.859Z,82.2
2019-03-17T05:58:02.500Z,82.1
2019-03-17T05:58:32.662Z,82.1
2019-03-17T05:59:52.626Z,81.8
2019-03-17T06:00:51.951Z,81.7
2019-03-17T06:01:50.783Z,81.7
2019-03-17T06:02:50.015Z,81.7
2019-03-17T06:03:48.842Z,81.7
2019-03-17T06:04:19.298Z,81.7
2019-03-17T06:04:49.753Z,81.8
2019-03-17T06:05:20.199Z,81.8
2019-03-17T06:05:50.537Z,81.8
2019-03-17T06:06:20.787Z,81.8
2019-03-17T06:06:51.355Z,81.7
2019-03-17T06:07:21.977Z,81.7
2019-03-17T06:07:52.111Z,81.6
2019-03-17T06:08:22.850Z,81.6
2019-03-17T06:09:43.321Z,81.5
2019-03-17T06:10:42.550Z,81.5
2019-03-17T06:11:41.368Z,81.6
2019-03-17T06:12:40.591Z,81.5
2019-03-17T06:13:39.833Z,81.6
2019-03-17T06:14:38.558Z,81.7
2019-03-17T06:15:09.201Z,81.7
2019-03-17T06:15:39.763Z,81.6
2019-03-17T06:16:09.904Z,81.6
2019-03-17T06:16:40.542Z,81.6
2019-03-17T06:17:11.200Z,81.6
2019-03-17T06:17:41.359Z,81.6
2019-03-17T06:18:11.816Z,81.6
2019-03-17T06:19:34.202Z,81.5
2019-03-17T06:20:32.992Z,81.3
2019-03-17T06:21:32.218Z,81.1
2019-03-17T06:22:31.537Z,81
2019-03-17T06:23:30.458Z,80.9
2019-03-17T06:24:29.691Z,80.7
2019-03-17T06:25:28.545Z,80.5
2019-03-17T06:25:58.754Z,80.5
2019-03-17T06:26:28.999Z,80.2
2019-03-17T06:26:59.540Z,80.2
2019-03-17T06:27:29.808Z,80.1
2019-03-17T06:28:00.453Z,80.1
2019-03-17T06:29:24.859Z,80
2019-03-17T06:30:23.995Z,79.7
2019-03-17T06:31:23.272Z,79.8
2019-03-17T06:32:21.996Z,79.9
2019-03-17T06:33:20.859Z,80
2019-03-17T06:34:20.033Z,80
2019-03-17T06:35:19.293Z,79.7
2019-03-17T06:36:18.622Z,79.8
2019-03-17T06:36:49.273Z,79.8
2019-03-17T06:37:31.509Z,79.6
2019-03-17T06:37:50.111Z,79.6
2019-03-17T06:39:15.510Z,79.2
2019-03-17T06:40:14.655Z,79.1
2019-03-17T06:42:13.056Z,78.6
2019-03-17T06:43:11.973Z,78.5
2019-03-17T06:44:11.203Z,77.9
2019-03-17T06:45:10.032Z,77.8
2019-03-17T06:46:08.957Z,77.2
2019-03-17T06:47:08.391Z,77
2019-03-17T06:47:38.533Z,77
2019-03-17T06:49:06.561Z,76.3
2019-03-17T06:50:05.188Z,75.6
2019-03-17T06:51:04.325Z,75.5
2019-03-17T06:52:03.785Z,74.8
2019-03-17T06:53:02.624Z,74.7
2019-03-17T06:54:01.865Z,74.6
2019-03-17T06:55:59.881Z,74.1
2019-03-17T06:56:59.213Z,73.7
2019-03-17T06:57:58.143Z,73.4
2019-03-17T06:58:28.291Z,73.4
2019-03-17T06:58:58.931Z,72.5
2019-03-17T06:59:56.245Z,72.4
2019-03-17T07:00:55.481Z,72.4
2019-03-17T07:01:54.303Z,72.3
2019-03-17T07:02:53.631Z,72.1
2019-03-17T07:03:24.090Z,72.1
2019-03-17T07:03:54.635Z,71.7
2019-03-17T07:04:54.397Z,71.3
2019-03-17T07:05:50.803Z,71.2
2019-03-17T07:06:49.841Z,71.3
2019-03-17T07:08:48.046Z,70.9
2019-03-17T07:09:47.289Z,71.2
2019-03-17T07:10:46.110Z,70.9
2019-03-17T07:11:45.265Z,70
2019-03-17T07:12:44.721Z,70
2019-03-17T07:13:15.361Z,70
2019-03-17T07:14:42.773Z,70.2
2019-03-17T07:15:42.004Z,69.8
2019-03-17T07:16:40.725Z,70
2019-03-17T07:17:39.954Z,69.7
2019-03-17T07:18:39.276Z,69.5
2019-03-17T07:19:38.093Z,69.6
2019-03-17T07:20:37.497Z,69.6
2019-03-17T07:21:36.205Z,69.4
2019-03-17T07:22:35.526Z,68.2
2019-03-17T07:23:06.161Z,68.2
2019-03-17T07:23:36.893Z,68.3
2019-03-17T07:24:07.037Z,68.3
2019-03-17T07:25:32.640Z,68.4
2019-03-17T07:26:31.871Z,67.9
2019-03-17T07:27:31.101Z,67.9
2019-03-17T07:28:29.924Z,68.1
2019-03-17T07:29:29.170Z,67.7
2019-03-17T07:30:28.410Z,67.1
2019-03-17T07:31:27.148Z,67.2
2019-03-17T07:32:26.474Z,67.2
2019-03-17T07:32:57.040Z,67.2
2019-03-17T07:33:27.497Z,66.9
2019-03-17T07:33:57.659Z,66.9
2019-03-17T07:34:28.398Z,66.9
2019-03-17T07:34:59.054Z,66.9
2019-03-17T07:36:23.018Z,66.9
2019-03-17T07:37:21.861Z,66.6
2019-03-17T07:38:21.181Z,66.3
2019-03-17T07:39:20.409Z,66.3
2019-03-17T07:40:19.129Z,66.7
2019-03-17T07:41:18.368Z,66.7
2019-03-17T07:42:17.717Z,66.4
2019-03-17T07:42:47.946Z,66.4
2019-03-17T07:43:18.497Z,66.6
2019-03-17T07:43:49.061Z,66.6
2019-03-17T07:44:19.817Z,65.9
2019-03-17T07:44:50.379Z,65.9
2019-03-17T07:45:21.017Z,65.4
2019-03-17T07:45:51.568Z,65.4
2019-03-17T07:47:13.043Z,65.3
2019-03-17T07:48:11.975Z,65.2
2019-03-17T07:49:11.310Z,65.5
2019-03-17T07:50:10.635Z,65.7
2019-03-17T07:51:09.463Z,65.9
2019-03-17T07:52:08.791Z,65.3
2019-03-17T07:53:07.571Z,65.3
2019-03-17T07:53:38.211Z,65.3
2019-03-17T07:54:08.748Z,65.1
2019-03-17T07:54:39.284Z,65.1
2019-03-17T07:55:09.743Z,65.1
2019-03-17T07:55:40.297Z,65.1
2019-03-17T07:56:10.529Z,65
2019-03-17T07:56:40.834Z,65
2019-03-17T07:58:03.484Z,65.1
2019-03-17T07:59:02.311Z,64.8
2019-03-17T08:00:01.477Z,65
2019-03-17T08:01:01.577Z,64.8
2019-03-17T08:01:59.921Z,64.5
2019-03-17T08:02:58.869Z,63.9
2019-03-17T08:03:29.525Z,63.9
2019-03-17T08:04:00.175Z,63.9
2019-03-17T08:04:46.007Z,63.9
2019-03-17T08:05:01.216Z,64
2019-03-17T08:05:31.767Z,64
2019-03-17T08:06:02.466Z,64
2019-03-17T08:06:32.716Z,64
2019-03-17T08:07:02.964Z,64.3
2019-03-17T08:07:33.203Z,64.3
2019-03-17T08:08:53.488Z,64.2
2019-03-17T08:09:52.851Z,63.6
2019-03-17T08:10:51.675Z,63.4
2019-03-17T08:11:50.996Z,62.3
2019-03-17T08:12:50.226Z,62.5
2019-03-17T08:13:20.763Z,62.5
2019-03-17T08:13:50.997Z,62
2019-03-17T08:14:21.633Z,62
2019-03-17T08:14:51.868Z,62.9
2019-03-17T08:15:22.436Z,62.9
2019-03-17T08:15:53.077Z,62.6
2019-03-17T08:16:23.523Z,62.6
2019-03-17T08:16:53.970Z,62.7
2019-03-17T08:17:24.611Z,62.7
2019-03-17T08:18:44.548Z,62.1
2019-03-17T08:19:43.989Z,62.6
2019-03-17T08:20:43.215Z,62.5
2019-03-17T08:21:43.676Z,61.4
2019-03-17T08:22:41.408Z,61.5
2019-03-17T08:23:40.644Z,61.5
2019-03-17T08:24:11.093Z,61.5
2019-03-17T08:25:38.608Z,61.5
2019-03-17T08:26:09.151Z,61.5
2019-03-17T08:26:39.285Z,61.6
2019-03-17T08:27:10.024Z,61.6
2019-03-17T08:28:35.941Z,61.9
2019-03-17T08:29:35.273Z,61.6
2019-03-17T08:30:34.599Z,61.7
2019-03-17T08:31:33.831Z,61.5
2019-03-17T08:32:32.764Z,61.5
2019-03-17T08:33:31.723Z,61.1
2019-03-17T08:34:31.061Z,61.1
2019-03-17T08:35:01.507Z,61.1
2019-03-17T08:35:32.087Z,61.8
2019-03-17T08:36:02.618Z,61.8
2019-03-17T08:36:33.162Z,61.9
2019-03-17T08:37:03.911Z,61.9
2019-03-17T08:38:27.395Z,61.3
2019-03-17T08:39:26.723Z,61.1
2019-03-17T08:40:25.960Z,61.2
2019-03-17T08:41:24.787Z,61.5
2019-03-17T08:42:24.044Z,61.4
2019-03-17T08:43:23.375Z,61.2
2019-03-17T08:44:22.096Z,60.5
2019-03-17T08:45:21.525Z,60.8
2019-03-17T08:45:51.765Z,60.8
2019-03-17T08:46:22.308Z,60.7
2019-03-17T08:46:52.542Z,60.7
2019-03-17T08:47:23.178Z,60.5
2019-03-17T08:47:58.863Z,60.5
2019-03-17T08:48:24.071Z,60.5
2019-03-17T08:48:54.512Z,60.5
2019-03-17T08:49:25.146Z,60.4
2019-03-17T08:50:17.360Z,60.1
2019-03-17T08:51:16.748Z,60.2
2019-03-17T08:52:15.661Z,60.1
2019-03-17T08:53:14.692Z,60.2
2019-03-17T08:54:14.034Z,60
2019-03-17T08:55:12.976Z,61.1
2019-03-17T08:56:12.240Z,59.7
2019-03-17T08:56:42.791Z,59.7
2019-03-17T08:57:13.351Z,60.1
2019-03-17T08:57:44.003Z,60.1
2019-03-17T08:58:14.576Z,59.7
2019-03-17T08:58:45.225Z,59.7
2019-03-17T08:59:15.440Z,59.4
2019-03-17T09:00:08.740Z,59.4
2019-03-17T09:01:08.063Z,59.3
2019-03-17T09:02:06.792Z,59.6
2019-03-17T09:03:05.927Z,59.5
2019-03-17T09:04:05.262Z,59
2019-03-17T09:05:04.690Z,59.7
2019-03-17T09:06:03.816Z,58.1
2019-03-17T09:07:02.657Z,58
2019-03-17T09:07:33.206Z,58
2019-03-17T09:08:03.762Z,57.4
2019-03-17T09:09:01.098Z,57.5
2019-03-17T09:10:00.626Z,57.4
2019-03-17T09:10:59.366Z,58.7
2019-03-17T09:11:58.794Z,57.8
2019-03-17T09:12:57.737Z,58.4
2019-03-17T09:13:56.964Z,58.6
2019-03-17T09:14:55.893Z,58.5
2019-03-17T09:15:55.131Z,58.2
2019-03-17T09:16:54.565Z,58.9
2019-03-17T09:17:53.292Z,58.7
2019-03-17T09:18:52.628Z,59.2
2019-03-17T09:19:52.077Z,59.1
2019-03-17T09:20:50.807Z,58.7
2019-03-17T09:21:50.140Z,58.5
2019-03-17T09:22:49.279Z,57.6
2019-03-17T09:23:19.848Z,57.6
2019-03-17T09:23:50.599Z,58.1
2019-03-17T09:24:47.417Z,57.6
2019-03-17T09:25:46.843Z,58.1
2019-03-17T09:26:46.086Z,57.5
2019-03-17T09:27:44.961Z,57.5
2019-03-17T09:28:44.397Z,57.6
2019-03-17T09:29:43.643Z,57.5
2019-03-17T09:30:42.792Z,57.7
2019-03-17T09:31:41.770Z,57.1
2019-03-17T09:32:41.006Z,57.9
2019-03-17T09:33:11.451Z,57.9
2019-03-17T09:33:41.987Z,57.7
2019-03-17T09:34:12.542Z,57.7
2019-03-17T09:34:43.188Z,56.7
2019-03-17T09:35:13.425Z,56.7
2019-03-17T09:35:44.066Z,56.6
2019-03-17T09:36:37.959Z,56.7
2019-03-17T09:37:37.184Z,56.9
2019-03-17T09:38:47.804Z,57.7
2019-03-17T09:39:35.098Z,57.7
2019-03-17T09:40:34.417Z,57.4
2019-03-17T09:41:33.839Z,56.9
2019-03-17T09:42:32.661Z,56.7
2019-03-17T09:43:03.123Z,56.7
2019-03-17T09:43:33.770Z,56.5
2019-03-17T09:44:04.004Z,56.5
2019-03-17T09:44:34.547Z,56.5
2019-03-17T09:45:04.985Z,56.5
2019-03-17T09:46:29.376Z,57.2
2019-03-17T09:47:28.666Z,57.2
2019-03-17T09:48:28.084Z,56.7
2019-03-17T09:49:26.910Z,56.9
2019-03-17T09:50:26.151Z,56.2
2019-03-17T09:51:25.482Z,57.1
2019-03-17T09:53:23.803Z,56.7
2019-03-17T09:53:54.035Z,56.7
2019-03-17T09:54:24.578Z,56.8
2019-03-17T09:54:54.733Z,56.8
2019-03-17T09:55:25.194Z,56.9
2019-03-17T09:55:55.744Z,56.9
2019-03-17T09:57:20.346Z,56.3
2019-03-17T09:58:19.672Z,56.3
2019-03-17T09:59:18.899Z,56.6
2019-03-17T10:00:17.928Z,56.3
2019-03-17T10:01:17.172Z,56.4
2019-03-17T10:02:16.309Z,56.4
2019-03-17T10:02:46.851Z,56.4
2019-03-17T10:03:17.309Z,56.6
2019-03-17T10:03:47.948Z,56.6
2019-03-17T10:04:18.497Z,56.6
2019-03-17T10:04:48.729Z,56.6
2019-03-17T10:05:19.311Z,55.4
2019-03-17T10:05:50.015Z,55.4
2019-03-17T10:06:20.159Z,56
2019-03-17T10:06:50.670Z,56
2019-03-17T10:08:11.545Z,56.1
2019-03-17T10:09:10.492Z,55.6
2019-03-17T10:10:10.128Z,56
2019-03-17T10:11:11.135Z,54.7
2019-03-17T10:12:08.360Z,54.7
2019-03-17T10:13:07.694Z,54.7
2019-03-17T10:13:38.135Z,54.7
2019-03-17T10:14:08.365Z,54.7
2019-03-17T10:14:38.608Z,54.7
2019-03-17T10:15:09.154Z,54.5
2019-03-17T10:15:39.702Z,54.5
2019-03-17T10:16:09.944Z,54.4
2019-03-17T10:16:40.182Z,54.4
2019-03-17T10:17:10.450Z,54.9
2019-03-17T10:17:40.993Z,54.9
2019-03-17T10:19:02.562Z,55.5
2019-03-17T10:20:01.698Z,54.9
2019-03-17T10:21:01.043Z,54.7
2019-03-17T10:22:00.368Z,55.4
2019-03-17T10:22:59.620Z,54.9
2019-03-17T10:23:30.070Z,54.9
2019-03-17T10:24:00.718Z,55.3
2019-03-17T10:24:31.155Z,55.3
2019-03-17T10:25:01.791Z,55
2019-03-17T10:25:32.233Z,55
2019-03-17T10:26:02.469Z,55
2019-03-17T10:26:33.102Z,55
2019-03-17T10:27:03.745Z,55
2019-03-17T10:27:33.977Z,55
2019-03-17T10:28:54.441Z,56.3
2019-03-17T10:29:53.781Z,55.1
2019-03-17T10:30:53.022Z,55.3
2019-03-17T10:31:52.353Z,55.4
2019-03-17T10:32:51.183Z,55.8
2019-03-17T10:33:50.322Z,55.5
2019-03-17T10:34:20.869Z,55.5
2019-03-17T10:34:51.440Z,56.7
2019-03-17T10:35:22.115Z,56.7
2019-03-17T10:35:52.376Z,55.8
2019-03-17T10:36:22.918Z,55.8
2019-03-17T10:36:53.158Z,55.8
2019-03-17T10:37:23.822Z,55.8
2019-03-17T10:37:54.368Z,56
2019-03-17T10:38:24.905Z,56
2019-03-17T10:39:45.781Z,56.2
2019-03-17T10:40:45.021Z,56.8
2019-03-17T10:41:44.057Z,56.7
2019-03-17T10:42:43.480Z,57
2019-03-17T10:43:42.625Z,57.6
2019-03-17T10:44:41.834Z,57
2019-03-17T10:45:12.159Z,57
2019-03-17T10:45:42.609Z,56.9
2019-03-17T10:46:13.147Z,56.9
2019-03-17T10:46:43.596Z,56.8
2019-03-17T10:47:14.137Z,56.8
2019-03-17T10:47:44.381Z,56.9
2019-03-17T10:48:15.031Z,56.9
2019-03-17T10:49:38.014Z,56.8
2019-03-17T10:50:50.011Z,56.8
2019-03-17T10:51:36.341Z,56.8
2019-03-17T10:52:35.374Z,56.8